Date,TemperatureHighF,TemperatureAvgF,TemperatureLowF,DewpointHighF,DewpointAvgF,DewpointLowF,HumidityHigh,HumidityAvg,HumidityLow,PressureMaxIn,PressureMinIn,WindSpeedMaxMPH,WindSpeedAvgMPH,GustSpeedMaxMPH,PrecipitationSumIn
2012-12-1,79.0,69.8,61.0,-99.9,-99.9,-99.9,0,0,100,30.23,30.14,6,3,11,0.00
2012-12-2,81.0,71.1,65.0,-99.9,-99.9,-99.9,0,0,100,30.26,30.16,6,3,10,0.00
2012-12-3,80.0,72.1,68.0,-99.9,-99.9,-99.9,0,0,100,30.26,30.16,6,3,9,0.00
2012-12-4,80.0,71.3,66.0,-99.9,-99.9,-99.9,0,0,100,30.27,30.15,6,3,9,0.00
2012-12-5,78.0,70.5,64.0,-99.9,-99.9,-99.9,0,0,100,30.18,30.01,6,2,11,0.00
2012-12-6,80.0,65.7,67.0,-99.9,-99.9,-99.9,0,0,100,30.03,29.90,6,4,11,0.00
2012-12-7,78.0,69.7,64.0,-99.9,-99.9,-99.9,0,0,100,30.00,29.90,6,2,10,0.00
2012-12-8,79.0,72.0,67.0,-99.9,-99.9,-99.9,0,0,100,30.03,29.94,5,3,9,0.00
2012-12-9,80.0,71.2,66.0,-99.9,-99.9,-99.9,0,0,100,30.08,30.00,5,2,8,0.00
2012-12-10,79.0,71.4,64.0,-99.9,-99.9,-99.9,0,0,100,30.02,29.85,6,2,15,0.00
2012-12-11,77.0,72.7,69.0,-99.9,-99.9,-99.9,0,0,100,30.01,29.87,6,2,10,0.00
2012-12-12,81.0,74.1,69.0,-99.9,-99.9,-99.9,0,0,100,30.06,29.96,5,2,9,0.00
2012-12-13,70.0,65.8,59.0,-99.9,-99.9,-99.9,0,0,100,30.18,30.05,7,6,16,0.00
2012-12-14,69.0,60.8,56.0,-99.9,-99.9,-99.9,0,0,100,30.21,30.09,6,4,11,0.00
2012-12-15,77.0,66.8,59.0,-99.9,-99.9,-99.9,0,0,100,30.13,30.03,5,2,9,0.00
2012-12-16,79.0,70.6,66.0,-99.9,-99.9,-99.9,0,0,100,30.05,29.93,5,2,8,0.00
2012-12-17,78.0,70.8,64.0,-99.9,-99.9,-99.9,0,0,100,29.97,29.87,6,2,13,0.00
2012-12-18,78.0,71.3,62.0,-99.9,-99.9,-99.9,0,0,100,30.02,29.87,9,3,14,0.00
2012-12-19,78.0,61.0,55.0,-99.9,-99.9,-99.9,0,0,100,30.10,30.02,6,2,10,0.00
2012-12-20,80.0,70.1,57.0,-99.9,-99.9,-99.9,0,0,100,30.06,29.92,7,4,15,0.00
2012-12-21,71.0,58.9,54.0,-99.9,-99.9,-99.9,0,0,100,30.21,29.96,15,9,23,0.00
2012-12-22,61.0,54.3,49.0,-99.9,-99.9,-99.9,0,0,100,30.29,30.19,7,4,15,0.00
2012-12-23,67.0,56.0,45.0,-99.9,-99.9,-99.9,0,0,100,30.25,30.13,5,1,8,0.00
2012-12-24,67.0,61.2,53.0,-99.9,-99.9,-99.9,0,0,100,30.13,29.97,5,1,11,0.00
2012-12-25,74.0,65.9,58.0,-99.9,-99.9,-99.9,0,0,100,30.01,29.87,6,2,10,0.00
2012-12-26,76.0,67.2,58.0,-99.9,-99.9,-99.9,0,0,100,30.00,29.82,14,6,22,0.00
2012-12-27,61.0,54.5,49.0,-99.9,-99.9,-99.9,0,0,100,30.09,30.00,7,3,13,0.00
2012-12-28,70.0,59.7,50.0,-99.9,-99.9,-99.9,0,0,100,30.08,29.91,6,2,9,0.00
2012-12-29,74.0,67.7,59.0,-99.9,-99.9,-99.9,0,0,100,30.16,29.86,15,7,21,0.00
2012-12-30,58.0,50.8,43.0,-99.9,-99.9,-99.9,0,0,100,30.35,30.16,9,6,18,0.00
2012-12-31,73.0,58.8,48.0,-99.9,-99.9,-99.9,0,0,100,30.33,30.17,5,2,9,0.00